sensor_id;sensor_type;location;lat;lon;timestamp;P1;durP1;ratioP1;P2;durP2;ratioP2
4758;SDS011;2393;50.560;12.636;2024-02-21T00:01:04;12.47;;;2.53;;
4758;SDS011;2393;50.560;12.636;2024-02-21T00:03:33;8.97;;;2.47;;
4758;SDS011;2393;50.560;12.636;2024-02-21T00:06:04;19.83;;;3.10;;
4758;SDS011;2393;50.560;12.636;2024-02-21T00:08:33;24.40;;;2.83;;
4758;SDS011;2393;50.560;12.636;2024-02-21T00:11:02;9.80;;;2.63;;
4758;SDS011;2393;50.560;12.636;2024-02-21T00:13:32;7.07;;;2.37;;
4758;SDS011;2393;50.560;12.636;2024-02-21T00:16:01;8.77;;;3.97;;
4758;SDS011;2393;50.560;12.636;2024-02-21T00:18:30;14.90;;;3.60;;
4758;SDS011;2393;50.560;12.636;2024-02-21T00:20:59;11.03;;;3.10;;
4758;SDS011;2393;50.560;12.636;2024-02-21T00:23:30;11.67;;;3.33;;
4758;SDS011;2393;50.560;12.636;2024-02-21T00:25:59;7.70;;;2.43;;
4758;SDS011;2393;50.560;12.636;2024-02-21T00:28:28;7.23;;;2.67;;
4758;SDS011;2393;50.560;12.636;2024-02-21T00:30:57;11.33;;;2.50;;
4758;SDS011;2393;50.560;12.636;2024-02-21T00:33:25;18.77;;;3.50;;
4758;SDS011;2393;50.560;12.636;2024-02-21T00:35:54;8.97;;;2.60;;
4758;SDS011;2393;50.560;12.636;2024-02-21T00:38:24;4.43;;;2.27;;
4758;SDS011;2393;50.560;12.636;2024-02-21T00:40:54;8.47;;;2.80;;
4758;SDS011;2393;50.560;12.636;2024-02-21T00:43:23;10.60;;;2.80;;
4758;SDS011;2393;50.560;12.636;2024-02-21T00:45:52;11.27;;;3.60;;
4758;SDS011;2393;50.560;12.636;2024-02-21T00:48:21;11.63;;;3.20;;
4758;SDS011;2393;50.560;12.636;2024-02-21T00:50:50;8.00;;;2.30;;
4758;SDS011;2393;50.560;12.636;2024-02-21T00:53:20;11.70;;;2.40;;
4758;SDS011;2393;50.560;12.636;2024-02-21T00:55:48;11.93;;;4.23;;
4758;SDS011;2393;50.560;12.636;2024-02-21T00:58:19;8.40;;;3.47;;
4758;SDS011;2393;50.560;12.636;2024-02-21T01:00:49;11.10;;;2.60;;
4758;SDS011;2393;50.560;12.636;2024-02-21T01:03:17;7.90;;;2.73;;
4758;SDS011;2393;50.560;12.636;2024-02-21T01:05:46;5.87;;;2.50;;
4758;SDS011;2393;50.560;12.636;2024-02-21T01:08:15;13.50;;;3.30;;
4758;SDS011;2393;50.560;12.636;2024-02-21T01:10:44;12.37;;;2.87;;
4758;SDS011;2393;50.560;12.636;2024-02-21T01:13:14;12.23;;;3.57;;
4758;SDS011;2393;50.560;12.636;2024-02-21T01:15:46;4.20;;;2.93;;
4758;SDS011;2393;50.560;12.636;2024-02-21T01:18:14;6.90;;;2.03;;
4758;SDS011;2393;50.560;12.636;2024-02-21T01:20:45;17.43;;;3.33;;
4758;SDS011;2393;50.560;12.636;2024-02-21T01:23:14;13.63;;;3.43;;
4758;SDS011;2393;50.560;12.636;2024-02-21T01:25:44;8.93;;;3.37;;
4758;SDS011;2393;50.560;12.636;2024-02-21T01:28:13;9.97;;;3.20;;
4758;SDS011;2393;50.560;12.636;2024-02-21T01:30:42;12.60;;;2.90;;
4758;SDS011;2393;50.560;12.636;2024-02-21T01:33:13;9.37;;;3.83;;
4758;SDS011;2393;50.560;12.636;2024-02-21T01:35:42;7.97;;;2.63;;
4758;SDS011;2393;50.560;12.636;2024-02-21T01:38:12;16.70;;;4.80;;
4758;SDS011;2393;50.560;12.636;2024-02-21T01:40:42;11.20;;;3.80;;
4758;SDS011;2393;50.560;12.636;2024-02-21T01:43:17;12.03;;;2.80;;
4758;SDS011;2393;50.560;12.636;2024-02-21T01:45:48;13.23;;;4.13;;
4758;SDS011;2393;50.560;12.636;2024-02-21T01:48:20;11.07;;;3.20;;
4758;SDS011;2393;50.560;12.636;2024-02-21T01:50:51;22.23;;;3.00;;
4758;SDS011;2393;50.560;12.636;2024-02-21T01:53:22;14.03;;;3.77;;
4758;SDS011;2393;50.560;12.636;2024-02-21T01:55:55;7.97;;;3.50;;
4758;SDS011;2393;50.560;12.636;2024-02-21T01:58:25;7.73;;;3.70;;
4758;SDS011;2393;50.560;12.636;2024-02-21T02:00:57;5.43;;;3.40;;
4758;SDS011;2393;50.560;12.636;2024-02-21T02:03:28;18.30;;;3.43;;
4758;SDS011;2393;50.560;12.636;2024-02-21T02:05:58;24.73;;;4.13;;
4758;SDS011;2393;50.560;12.636;2024-02-21T02:08:27;9.30;;;3.17;;
4758;SDS011;2393;50.560;12.636;2024-02-21T02:10:56;11.03;;;3.70;;
4758;SDS011;2393;50.560;12.636;2024-02-21T02:13:25;27.73;;;4.40;;
4758;SDS011;2393;50.560;12.636;2024-02-21T02:15:55;10.77;;;3.53;;
4758;SDS011;2393;50.560;12.636;2024-02-21T02:18:24;23.70;;;3.50;;
4758;SDS011;2393;50.560;12.636;2024-02-21T02:20:55;5.50;;;3.50;;
4758;SDS011;2393;50.560;12.636;2024-02-21T02:23:26;15.97;;;3.33;;
4758;SDS011;2393;50.560;12.636;2024-02-21T02:25:56;19.60;;;4.80;;
4758;SDS011;2393;50.560;12.636;2024-02-21T02:28:25;16.50;;;4.10;;
4758;SDS011;2393;50.560;12.636;2024-02-21T02:30:54;14.03;;;3.80;;
4758;SDS011;2393;50.560;12.636;2024-02-21T02:33:23;25.60;;;4.13;;
4758;SDS011;2393;50.560;12.636;2024-02-21T02:35:53;19.43;;;4.20;;
4758;SDS011;2393;50.560;12.636;2024-02-21T02:38:22;9.77;;;4.20;;
4758;SDS011;2393;50.560;12.636;2024-02-21T02:40:53;7.03;;;3.57;;
4758;SDS011;2393;50.560;12.636;2024-02-21T02:43:22;14.70;;;3.33;;
4758;SDS011;2393;50.560;12.636;2024-02-21T02:45:50;13.07;;;3.83;;
4758;SDS011;2393;50.560;12.636;2024-02-21T02:48:19;11.20;;;3.90;;
4758;SDS011;2393;50.560;12.636;2024-02-21T02:50:48;4.57;;;3.43;;
4758;SDS011;2393;50.560;12.636;2024-02-21T02:53:17;8.17;;;3.50;;
4758;SDS011;2393;50.560;12.636;2024-02-21T02:55:45;14.40;;;2.63;;
4758;SDS011;2393;50.560;12.636;2024-02-21T02:58:16;20.03;;;4.13;;
4758;SDS011;2393;50.560;12.636;2024-02-21T03:00:45;16.30;;;4.50;;
4758;SDS011;2393;50.560;12.636;2024-02-21T03:03:14;8.83;;;3.57;;
4758;SDS011;2393;50.560;12.636;2024-02-21T03:05:43;10.77;;;3.40;;
4758;SDS011;2393;50.560;12.636;2024-02-21T03:08:12;21.13;;;4.00;;
4758;SDS011;2393;50.560;12.636;2024-02-21T03:10:40;18.77;;;3.83;;
4758;SDS011;2393;50.560;12.636;2024-02-21T03:13:09;9.20;;;3.90;;
4758;SDS011;2393;50.560;12.636;2024-02-21T03:15:39;14.30;;;3.90;;
4758;SDS011;2393;50.560;12.636;2024-02-21T03:18:08;12.40;;;4.33;;
4758;SDS011;2393;50.560;12.636;2024-02-21T03:20:36;23.03;;;4.27;;
4758;SDS011;2393;50.560;12.636;2024-02-21T03:23:06;16.53;;;3.30;;
4758;SDS011;2393;50.560;12.636;2024-02-21T03:25:36;15.70;;;3.90;;
4758;SDS011;2393;50.560;12.636;2024-02-21T03:28:06;9.87;;;3.03;;
4758;SDS011;2393;50.560;12.636;2024-02-21T03:30:35;14.53;;;3.30;;
4758;SDS011;2393;50.560;12.636;2024-02-21T03:33:06;10.30;;;3.80;;
4758;SDS011;2393;50.560;12.636;2024-02-21T03:35:35;13.27;;;3.77;;
4758;SDS011;2393;50.560;12.636;2024-02-21T03:38:04;26.00;;;4.70;;
4758;SDS011;2393;50.560;12.636;2024-02-21T03:40:33;12.70;;;3.27;;
4758;SDS011;2393;50.560;12.636;2024-02-21T03:43:10;4.33;;;2.80;;
4758;SDS011;2393;50.560;12.636;2024-02-21T03:53:55;5.73;;;3.30;;
4758;SDS011;2393;50.560;12.636;2024-02-21T03:56:23;12.73;;;4.00;;
4758;SDS011;2393;50.560;12.636;2024-02-21T03:58:51;7.37;;;2.83;;
4758;SDS011;2393;50.560;12.636;2024-02-21T04:01:19;15.37;;;4.30;;
4758;SDS011;2393;50.560;12.636;2024-02-21T04:03:47;14.23;;;4.13;;
4758;SDS011;2393;50.560;12.636;2024-02-21T04:06:15;7.23;;;3.20;;
4758;SDS011;2393;50.560;12.636;2024-02-21T04:08:45;21.60;;;4.17;;
4758;SDS011;2393;50.560;12.636;2024-02-21T04:11:13;3.03;;;2.73;;
4758;SDS011;2393;50.560;12.636;2024-02-21T04:13:41;13.03;;;3.13;;
4758;SDS011;2393;50.560;12.636;2024-02-21T04:16:09;9.03;;;3.17;;
4758;SDS011;2393;50.560;12.636;2024-02-21T04:18:37;10.80;;;3.63;;
4758;SDS011;2393;50.560;12.636;2024-02-21T04:21:05;15.20;;;3.80;;
4758;SDS011;2393;50.560;12.636;2024-02-21T04:23:33;8.50;;;3.30;;
4758;SDS011;2393;50.560;12.636;2024-02-21T04:26:02;14.43;;;4.20;;
4758;SDS011;2393;50.560;12.636;2024-02-21T04:28:31;11.80;;;2.97;;
4758;SDS011;2393;50.560;12.636;2024-02-21T04:30:59;9.50;;;3.63;;
4758;SDS011;2393;50.560;12.636;2024-02-21T04:33:27;10.30;;;3.80;;
4758;SDS011;2393;50.560;12.636;2024-02-21T04:35:55;5.50;;;3.27;;
4758;SDS011;2393;50.560;12.636;2024-02-21T04:38:25;6.97;;;2.77;;
4758;SDS011;2393;50.560;12.636;2024-02-21T04:40:53;6.37;;;2.93;;
4758;SDS011;2393;50.560;12.636;2024-02-21T04:43:22;5.60;;;2.83;;
4758;SDS011;2393;50.560;12.636;2024-02-21T04:45:50;6.80;;;3.00;;
4758;SDS011;2393;50.560;12.636;2024-02-21T04:48:19;7.53;;;3.40;;
4758;SDS011;2393;50.560;12.636;2024-02-21T04:50:47;16.20;;;3.80;;
4758;SDS011;2393;50.560;12.636;2024-02-21T04:53:15;14.47;;;3.40;;
4758;SDS011;2393;50.560;12.636;2024-02-21T04:55:43;14.90;;;3.50;;
4758;SDS011;2393;50.560;12.636;2024-02-21T04:58:12;11.63;;;3.40;;
4758;SDS011;2393;50.560;12.636;2024-02-21T05:00:41;8.97;;;3.30;;
4758;SDS011;2393;50.560;12.636;2024-02-21T05:03:09;6.07;;;3.43;;
4758;SDS011;2393;50.560;12.636;2024-02-21T05:05:37;8.00;;;3.13;;
4758;SDS011;2393;50.560;12.636;2024-02-21T05:08:06;12.40;;;4.30;;
4758;SDS011;2393;50.560;12.636;2024-02-21T05:10:34;9.10;;;3.83;;
4758;SDS011;2393;50.560;12.636;2024-02-21T05:13:02;15.27;;;5.70;;
4758;SDS011;2393;50.560;12.636;2024-02-21T05:15:30;7.70;;;3.23;;
4758;SDS011;2393;50.560;12.636;2024-02-21T05:18:00;9.33;;;3.67;;
4758;SDS011;2393;50.560;12.636;2024-02-21T05:20:28;9.87;;;3.50;;
4758;SDS011;2393;50.560;12.636;2024-02-21T05:22:57;14.87;;;3.90;;
4758;SDS011;2393;50.560;12.636;2024-02-21T05:25:25;10.70;;;3.10;;
4758;SDS011;2393;50.560;12.636;2024-02-21T05:27:53;14.40;;;3.80;;
4758;SDS011;2393;50.560;12.636;2024-02-21T05:30:22;15.83;;;4.83;;
4758;SDS011;2393;50.560;12.636;2024-02-21T05:32:50;21.30;;;4.93;;
4758;SDS011;2393;50.560;12.636;2024-02-21T05:35:20;12.63;;;3.10;;
4758;SDS011;2393;50.560;12.636;2024-02-21T05:37:53;9.10;;;3.20;;
4758;SDS011;2393;50.560;12.636;2024-02-21T05:40:21;6.83;;;4.20;;
4758;SDS011;2393;50.560;12.636;2024-02-21T05:42:49;13.83;;;4.63;;
4758;SDS011;2393;50.560;12.636;2024-02-21T05:45:18;10.18;;;3.90;;
4758;SDS011;2393;50.560;12.636;2024-02-21T05:47:46;17.13;;;3.50;;
4758;SDS011;2393;50.560;12.636;2024-02-21T05:50:14;5.20;;;3.50;;
4758;SDS011;2393;50.560;12.636;2024-02-21T05:52:45;8.67;;;2.63;;
4758;SDS011;2393;50.560;12.636;2024-02-21T05:55:13;10.50;;;3.20;;
4758;SDS011;2393;50.560;12.636;2024-02-21T05:57:41;9.75;;;4.25;;
4758;SDS011;2393;50.560;12.636;2024-02-21T06:00:09;7.73;;;3.27;;
4758;SDS011;2393;50.560;12.636;2024-02-21T06:02:38;5.27;;;3.93;;
4758;SDS011;2393;50.560;12.636;2024-02-21T06:05:06;9.97;;;3.70;;
4758;SDS011;2393;50.560;12.636;2024-02-21T06:07:35;7.17;;;3.10;;
4758;SDS011;2393;50.560;12.636;2024-02-21T06:10:06;7.80;;;3.73;;
4758;SDS011;2393;50.560;12.636;2024-02-21T06:12:35;16.40;;;3.93;;
4758;SDS011;2393;50.560;12.636;2024-02-21T06:15:03;14.73;;;4.03;;
4758;SDS011;2393;50.560;12.636;2024-02-21T06:17:32;10.60;;;3.97;;
4758;SDS011;2393;50.560;12.636;2024-02-21T06:20:00;13.67;;;4.27;;
4758;SDS011;2393;50.560;12.636;2024-02-21T06:22:29;9.53;;;3.40;;
4758;SDS011;2393;50.560;12.636;2024-02-21T06:24:58;21.77;;;4.70;;
4758;SDS011;2393;50.560;12.636;2024-02-21T06:27:27;7.33;;;3.53;;
4758;SDS011;2393;50.560;12.636;2024-02-21T06:29:55;16.47;;;4.67;;
4758;SDS011;2393;50.560;12.636;2024-02-21T06:32:30;16.97;;;4.40;;
4758;SDS011;2393;50.560;12.636;2024-02-21T06:35:01;19.87;;;5.07;;
4758;SDS011;2393;50.560;12.636;2024-02-21T06:37:35;9.40;;;4.70;;
4758;SDS011;2393;50.560;12.636;2024-02-21T06:40:07;12.93;;;4.30;;
4758;SDS011;2393;50.560;12.636;2024-02-21T06:42:42;6.90;;;3.93;;
4758;SDS011;2393;50.560;12.636;2024-02-21T06:45:11;9.17;;;3.77;;
4758;SDS011;2393;50.560;12.636;2024-02-21T06:47:40;6.25;;;3.90;;
4758;SDS011;2393;50.560;12.636;2024-02-21T06:50:08;11.33;;;3.67;;
4758;SDS011;2393;50.560;12.636;2024-02-21T06:52:36;6.30;;;4.00;;
4758;SDS011;2393;50.560;12.636;2024-02-21T06:55:08;17.43;;;3.77;;
4758;SDS011;2393;50.560;12.636;2024-02-21T06:57:37;13.23;;;3.90;;
4758;SDS011;2393;50.560;12.636;2024-02-21T07:00:07;12.43;;;3.90;;
4758;SDS011;2393;50.560;12.636;2024-02-21T07:02:36;14.50;;;4.70;;
4758;SDS011;2393;50.560;12.636;2024-02-21T07:05:04;5.23;;;3.60;;
4758;SDS011;2393;50.560;12.636;2024-02-21T07:07:36;11.17;;;4.00;;
4758;SDS011;2393;50.560;12.636;2024-02-21T07:10:04;9.63;;;4.17;;
4758;SDS011;2393;50.560;12.636;2024-02-21T07:12:32;7.57;;;3.40;;
4758;SDS011;2393;50.560;12.636;2024-02-21T07:15:02;7.37;;;3.53;;
4758;SDS011;2393;50.560;12.636;2024-02-21T07:17:34;7.77;;;4.00;;
4758;SDS011;2393;50.560;12.636;2024-02-21T07:20:02;8.53;;;3.10;;
4758;SDS011;2393;50.560;12.636;2024-02-21T07:22:31;9.10;;;2.87;;
4758;SDS011;2393;50.560;12.636;2024-02-21T07:24:59;8.83;;;3.20;;
4758;SDS011;2393;50.560;12.636;2024-02-21T07:27:31;8.20;;;3.40;;
4758;SDS011;2393;50.560;12.636;2024-02-21T07:30:00;9.30;;;3.33;;
4758;SDS011;2393;50.560;12.636;2024-02-21T07:32:28;10.83;;;2.80;;
4758;SDS011;2393;50.560;12.636;2024-02-21T07:34:57;3.00;;;2.70;;
4758;SDS011;2393;50.560;12.636;2024-02-21T07:37:26;9.20;;;3.07;;
4758;SDS011;2393;50.560;12.636;2024-02-21T07:40:01;3.47;;;3.17;;
4758;SDS011;2393;50.560;12.636;2024-02-21T07:42:33;10.03;;;3.10;;
4758;SDS011;2393;50.560;12.636;2024-02-21T07:45:07;8.27;;;2.93;;
4758;SDS011;2393;50.560;12.636;2024-02-21T07:47:38;13.40;;;2.80;;
4758;SDS011;2393;50.560;12.636;2024-02-21T07:50:08;10.73;;;2.87;;
4758;SDS011;2393;50.560;12.636;2024-02-21T07:52:36;6.17;;;2.37;;
4758;SDS011;2393;50.560;12.636;2024-02-21T07:55:05;7.07;;;2.70;;
4758;SDS011;2393;50.560;12.636;2024-02-21T07:57:33;8.83;;;2.60;;
4758;SDS011;2393;50.560;12.636;2024-02-21T08:00:01;7.87;;;2.80;;
4758;SDS011;2393;50.560;12.636;2024-02-21T08:02:37;6.67;;;2.53;;
4758;SDS011;2393;50.560;12.636;2024-02-21T08:05:09;3.83;;;3.03;;
4758;SDS011;2393;50.560;12.636;2024-02-21T08:07:39;15.10;;;2.70;;
4758;SDS011;2393;50.560;12.636;2024-02-21T08:10:07;5.80;;;2.63;;
4758;SDS011;2393;50.560;12.636;2024-02-21T08:12:35;7.63;;;2.23;;
4758;SDS011;2393;50.560;12.636;2024-02-21T08:15:04;10.57;;;2.20;;
4758;SDS011;2393;50.560;12.636;2024-02-21T08:17:37;6.03;;;2.27;;
4758;SDS011;2393;50.560;12.636;2024-02-21T08:20:05;6.97;;;2.90;;
4758;SDS011;2393;50.560;12.636;2024-02-21T08:22:38;7.30;;;2.50;;
4758;SDS011;2393;50.560;12.636;2024-02-21T08:25:06;13.67;;;2.77;;
4758;SDS011;2393;50.560;12.636;2024-02-21T08:27:34;10.90;;;3.07;;
4758;SDS011;2393;50.560;12.636;2024-02-21T08:30:02;9.93;;;2.27;;
4758;SDS011;2393;50.560;12.636;2024-02-21T08:32:31;6.50;;;1.60;;
4758;SDS011;2393;50.560;12.636;2024-02-21T08:34:59;5.77;;;2.07;;
4758;SDS011;2393;50.560;12.636;2024-02-21T08:37:27;12.73;;;2.30;;
4758;SDS011;2393;50.560;12.636;2024-02-21T08:39:55;4.93;;;2.40;;
4758;SDS011;2393;50.560;12.636;2024-02-21T08:42:23;5.03;;;1.80;;
4758;SDS011;2393;50.560;12.636;2024-02-21T08:44:52;16.90;;;2.60;;
4758;SDS011;2393;50.560;12.636;2024-02-21T08:47:20;8.70;;;2.10;;
4758;SDS011;2393;50.560;12.636;2024-02-21T08:49:48;5.10;;;2.03;;
4758;SDS011;2393;50.560;12.636;2024-02-21T08:52:17;7.10;;;2.17;;
4758;SDS011;2393;50.560;12.636;2024-02-21T08:54:46;3.23;;;1.33;;
4758;SDS011;2393;50.560;12.636;2024-02-21T08:57:19;7.03;;;2.00;;
4758;SDS011;2393;50.560;12.636;2024-02-21T08:59:49;5.53;;;2.70;;
4758;SDS011;2393;50.560;12.636;2024-02-21T09:02:18;3.07;;;1.60;;
4758;SDS011;2393;50.560;12.636;2024-02-21T09:04:46;3.60;;;2.07;;
4758;SDS011;2393;50.560;12.636;2024-02-21T09:07:14;5.23;;;1.70;;
4758;SDS011;2393;50.560;12.636;2024-02-21T09:09:42;3.80;;;1.50;;
4758;SDS011;2393;50.560;12.636;2024-02-21T09:12:11;11.63;;;1.87;;
4758;SDS011;2393;50.560;12.636;2024-02-21T09:14:44;6.97;;;2.20;;
4758;SDS011;2393;50.560;12.636;2024-02-21T09:17:15;6.97;;;1.30;;
4758;SDS011;2393;50.560;12.636;2024-02-21T09:19:44;7.70;;;3.30;;
4758;SDS011;2393;50.560;12.636;2024-02-21T09:22:12;5.30;;;2.27;;
4758;SDS011;2393;50.560;12.636;2024-02-21T09:24:41;4.93;;;2.23;;
4758;SDS011;2393;50.560;12.636;2024-02-21T09:27:14;11.27;;;2.13;;
4758;SDS011;2393;50.560;12.636;2024-02-21T09:29:43;5.90;;;2.00;;
4758;SDS011;2393;50.560;12.636;2024-02-21T09:32:11;8.40;;;3.03;;
4758;SDS011;2393;50.560;12.636;2024-02-21T09:34:40;7.17;;;1.97;;
4758;SDS011;2393;50.560;12.636;2024-02-21T09:37:09;9.73;;;2.37;;
4758;SDS011;2393;50.560;12.636;2024-02-21T09:39:37;16.20;;;2.93;;
4758;SDS011;2393;50.560;12.636;2024-02-21T09:42:05;6.30;;;2.10;;
4758;SDS011;2393;50.560;12.636;2024-02-21T09:44:36;5.90;;;2.77;;
4758;SDS011;2393;50.560;12.636;2024-02-21T09:47:09;4.07;;;2.03;;
4758;SDS011;2393;50.560;12.636;2024-02-21T09:49:40;8.17;;;2.70;;
4758;SDS011;2393;50.560;12.636;2024-02-21T09:52:11;13.80;;;2.27;;
4758;SDS011;2393;50.560;12.636;2024-02-21T09:54:40;4.50;;;2.63;;
4758;SDS011;2393;50.560;12.636;2024-02-21T09:57:11;6.90;;;2.27;;
4758;SDS011;2393;50.560;12.636;2024-02-21T09:59:39;4.60;;;2.00;;
4758;SDS011;2393;50.560;12.636;2024-02-21T10:02:09;11.27;;;2.27;;
4758;SDS011;2393;50.560;12.636;2024-02-21T10:04:39;5.27;;;2.57;;
4758;SDS011;2393;50.560;12.636;2024-02-21T10:07:08;10.07;;;2.27;;
4758;SDS011;2393;50.560;12.636;2024-02-21T10:09:37;4.10;;;1.57;;
4758;SDS011;2393;50.560;12.636;2024-02-21T10:12:10;7.57;;;2.60;;
4758;SDS011;2393;50.560;12.636;2024-02-21T10:14:40;6.43;;;2.00;;
4758;SDS011;2393;50.560;12.636;2024-02-21T10:17:14;8.87;;;2.63;;
4758;SDS011;2393;50.560;12.636;2024-02-21T10:19:45;5.43;;;2.50;;
4758;SDS011;2393;50.560;12.636;2024-02-21T10:22:14;9.13;;;2.70;;
4758;SDS011;2393;50.560;12.636;2024-02-21T10:24:43;7.20;;;2.57;;
4758;SDS011;2393;50.560;12.636;2024-02-21T10:27:11;6.53;;;2.57;;
4758;SDS011;2393;50.560;12.636;2024-02-21T10:29:40;13.77;;;3.20;;
4758;SDS011;2393;50.560;12.636;2024-02-21T10:32:10;4.80;;;1.77;;
4758;SDS011;2393;50.560;12.636;2024-02-21T10:34:40;8.17;;;2.90;;
4758;SDS011;2393;50.560;12.636;2024-02-21T10:37:11;7.47;;;2.20;;
4758;SDS011;2393;50.560;12.636;2024-02-21T10:39:39;3.70;;;2.20;;
4758;SDS011;2393;50.560;12.636;2024-02-21T10:42:10;6.33;;;1.63;;
4758;SDS011;2393;50.560;12.636;2024-02-21T10:44:40;11.73;;;1.57;;
4758;SDS011;2393;50.560;12.636;2024-02-21T10:47:11;2.50;;;1.77;;
4758;SDS011;2393;50.560;12.636;2024-02-21T10:49:41;7.17;;;2.17;;
4758;SDS011;2393;50.560;12.636;2024-02-21T10:52:14;4.23;;;1.47;;
4758;SDS011;2393;50.560;12.636;2024-02-21T10:54:51;4.23;;;1.63;;
4758;SDS011;2393;50.560;12.636;2024-02-21T10:57:23;4.70;;;1.60;;
4758;SDS011;2393;50.560;12.636;2024-02-21T10:59:54;3.97;;;1.27;;
4758;SDS011;2393;50.560;12.636;2024-02-21T11:02:24;3.67;;;1.80;;
4758;SDS011;2393;50.560;12.636;2024-02-21T11:04:56;3.80;;;1.30;;
4758;SDS011;2393;50.560;12.636;2024-02-21T11:07:25;2.10;;;1.20;;
4758;SDS011;2393;50.560;12.636;2024-02-21T11:09:53;6.20;;;1.07;;
4758;SDS011;2393;50.560;12.636;2024-02-21T11:12:22;1.30;;;1.20;;
4758;SDS011;2393;50.560;12.636;2024-02-21T11:14:52;3.03;;;1.20;;
4758;SDS011;2393;50.560;12.636;2024-02-21T11:17:20;1.43;;;1.10;;
4758;SDS011;2393;50.560;12.636;2024-02-21T11:19:53;4.00;;;1.40;;
4758;SDS011;2393;50.560;12.636;2024-02-21T11:22:22;6.40;;;1.17;;
4758;SDS011;2393;50.560;12.636;2024-02-21T11:24:51;2.80;;;0.97;;
4758;SDS011;2393;50.560;12.636;2024-02-21T11:27:20;5.70;;;1.50;;
4758;SDS011;2393;50.560;12.636;2024-02-21T11:29:54;5.03;;;1.20;;
4758;SDS011;2393;50.560;12.636;2024-02-21T11:32:24;5.40;;;0.97;;
4758;SDS011;2393;50.560;12.636;2024-02-21T11:34:55;2.83;;;1.13;;
4758;SDS011;2393;50.560;12.636;2024-02-21T11:37:28;1.57;;;1.03;;
4758;SDS011;2393;50.560;12.636;2024-02-21T11:39:59;15.17;;;1.57;;
4758;SDS011;2393;50.560;12.636;2024-02-21T11:42:30;3.20;;;0.83;;
4758;SDS011;2393;50.560;12.636;2024-02-21T11:44:59;1.23;;;0.80;;
4758;SDS011;2393;50.560;12.636;2024-02-21T11:47:28;6.60;;;1.10;;
4758;SDS011;2393;50.560;12.636;2024-02-21T11:49:58;4.20;;;1.13;;
4758;SDS011;2393;50.560;12.636;2024-02-21T11:52:26;2.97;;;1.30;;
4758;SDS011;2393;50.560;12.636;2024-02-21T11:54:55;2.63;;;0.83;;
4758;SDS011;2393;50.560;12.636;2024-02-21T11:57:31;4.13;;;1.00;;
4758;SDS011;2393;50.560;12.636;2024-02-21T12:00:10;2.30;;;1.20;;
4758;SDS011;2393;50.560;12.636;2024-02-21T12:02:40;9.00;;;1.20;;
4758;SDS011;2393;50.560;12.636;2024-02-21T12:05:09;2.83;;;0.90;;
4758;SDS011;2393;50.560;12.636;2024-02-21T12:07:38;6.70;;;1.43;;
4758;SDS011;2393;50.560;12.636;2024-02-21T12:10:07;2.60;;;1.17;;
4758;SDS011;2393;50.560;12.636;2024-02-21T12:12:37;3.17;;;0.83;;
4758;SDS011;2393;50.560;12.636;2024-02-21T12:15:06;1.97;;;1.27;;
4758;SDS011;2393;50.560;12.636;2024-02-21T12:17:35;4.00;;;1.13;;
4758;SDS011;2393;50.560;12.636;2024-02-21T12:20:03;6.43;;;1.13;;
4758;SDS011;2393;50.560;12.636;2024-02-21T12:22:37;2.27;;;0.87;;
4758;SDS011;2393;50.560;12.636;2024-02-21T12:25:15;6.27;;;1.33;;
4758;SDS011;2393;50.560;12.636;2024-02-21T12:27:44;1.80;;;0.97;;
4758;SDS011;2393;50.560;12.636;2024-02-21T12:30:12;1.33;;;0.60;;
4758;SDS011;2393;50.560;12.636;2024-02-21T12:32:40;4.60;;;1.27;;
4758;SDS011;2393;50.560;12.636;2024-02-21T12:35:09;2.73;;;1.03;;
4758;SDS011;2393;50.560;12.636;2024-02-21T12:37:38;5.60;;;0.77;;
4758;SDS011;2393;50.560;12.636;2024-02-21T12:40:08;2.50;;;0.70;;
4758;SDS011;2393;50.560;12.636;2024-02-21T12:42:38;0.80;;;0.80;;
4758;SDS011;2393;50.560;12.636;2024-02-21T12:45:06;3.77;;;0.67;;
4758;SDS011;2393;50.560;12.636;2024-02-21T12:47:35;3.93;;;1.10;;
4758;SDS011;2393;50.560;12.636;2024-02-21T12:50:03;4.93;;;0.73;;
4758;SDS011;2393;50.560;12.636;2024-02-21T12:52:33;4.60;;;0.97;;
4758;SDS011;2393;50.560;12.636;2024-02-21T12:55:03;3.43;;;0.70;;
4758;SDS011;2393;50.560;12.636;2024-02-21T12:57:32;4.30;;;0.60;;
4758;SDS011;2393;50.560;12.636;2024-02-21T13:00:00;4.37;;;0.83;;
4758;SDS011;2393;50.560;12.636;2024-02-21T13:02:29;1.07;;;0.60;;
4758;SDS011;2393;50.560;12.636;2024-02-21T13:04:58;6.30;;;0.63;;
4758;SDS011;2393;50.560;12.636;2024-02-21T13:07:27;4.47;;;0.90;;
4758;SDS011;2393;50.560;12.636;2024-02-21T13:09:57;4.20;;;0.50;;
4758;SDS011;2393;50.560;12.636;2024-02-21T13:12:27;2.47;;;0.73;;
4758;SDS011;2393;50.560;12.636;2024-02-21T13:14:56;2.37;;;0.77;;
4758;SDS011;2393;50.560;12.636;2024-02-21T13:17:24;4.20;;;0.83;;
4758;SDS011;2393;50.560;12.636;2024-02-21T13:19:57;3.50;;;2.03;;
4758;SDS011;2393;50.560;12.636;2024-02-21T13:22:25;2.10;;;0.47;;
4758;SDS011;2393;50.560;12.636;2024-02-21T13:24:53;0.90;;;0.70;;
4758;SDS011;2393;50.560;12.636;2024-02-21T13:27:24;1.60;;;0.80;;
4758;SDS011;2393;50.560;12.636;2024-02-21T13:29:54;3.07;;;0.97;;
4758;SDS011;2393;50.560;12.636;2024-02-21T13:32:22;3.50;;;0.73;;
4758;SDS011;2393;50.560;12.636;2024-02-21T13:34:50;2.10;;;0.60;;
4758;SDS011;2393;50.560;12.636;2024-02-21T13:37:19;0.97;;;0.60;;
4758;SDS011;2393;50.560;12.636;2024-02-21T13:39:48;1.70;;;0.67;;
4758;SDS011;2393;50.560;12.636;2024-02-21T13:42:16;3.03;;;1.07;;
4758;SDS011;2393;50.560;12.636;2024-02-21T13:44:44;3.50;;;0.70;;
4758;SDS011;2393;50.560;12.636;2024-02-21T13:47:14;1.20;;;0.90;;
4758;SDS011;2393;50.560;12.636;2024-02-21T13:49:42;1.23;;;0.67;;
4758;SDS011;2393;50.560;12.636;2024-02-21T13:52:10;1.53;;;0.70;;
4758;SDS011;2393;50.560;12.636;2024-02-21T13:54:38;3.70;;;1.13;;
4758;SDS011;2393;50.560;12.636;2024-02-21T13:57:06;4.90;;;1.30;;
4758;SDS011;2393;50.560;12.636;2024-02-21T13:59:34;1.90;;;1.03;;
4758;SDS011;2393;50.560;12.636;2024-02-21T14:02:02;5.53;;;1.03;;
4758;SDS011;2393;50.560;12.636;2024-02-21T14:04:32;1.00;;;0.90;;
4758;SDS011;2393;50.560;12.636;2024-02-21T14:07:00;1.70;;;0.87;;
4758;SDS011;2393;50.560;12.636;2024-02-21T14:09:28;3.23;;;0.93;;
4758;SDS011;2393;50.560;12.636;2024-02-21T14:11:57;5.27;;;0.80;;
4758;SDS011;2393;50.560;12.636;2024-02-21T14:14:25;5.90;;;1.03;;
4758;SDS011;2393;50.560;12.636;2024-02-21T14:16:53;5.13;;;0.93;;
4758;SDS011;2393;50.560;12.636;2024-02-21T14:19:22;5.37;;;0.90;;
4758;SDS011;2393;50.560;12.636;2024-02-21T14:21:52;1.63;;;0.50;;
4758;SDS011;2393;50.560;12.636;2024-02-21T14:24:20;0.97;;;0.63;;
4758;SDS011;2393;50.560;12.636;2024-02-21T14:26:48;0.87;;;0.50;;
4758;SDS011;2393;50.560;12.636;2024-02-21T14:29:16;1.17;;;0.83;;
4758;SDS011;2393;50.560;12.636;2024-02-21T14:31:44;0.57;;;0.50;;
4758;SDS011;2393;50.560;12.636;2024-02-21T14:34:12;1.07;;;0.70;;
4758;SDS011;2393;50.560;12.636;2024-02-21T14:36:40;0.93;;;0.47;;
4758;SDS011;2393;50.560;12.636;2024-02-21T14:39:09;5.90;;;1.00;;
4758;SDS011;2393;50.560;12.636;2024-02-21T14:41:37;7.63;;;0.90;;
4758;SDS011;2393;50.560;12.636;2024-02-21T14:44:06;1.63;;;0.80;;
4758;SDS011;2393;50.560;12.636;2024-02-21T14:46:36;2.13;;;0.67;;
4758;SDS011;2393;50.560;12.636;2024-02-21T14:49:05;4.63;;;0.70;;
4758;SDS011;2393;50.560;12.636;2024-02-21T14:51:33;3.50;;;0.60;;
4758;SDS011;2393;50.560;12.636;2024-02-21T14:54:01;5.60;;;0.67;;
4758;SDS011;2393;50.560;12.636;2024-02-21T14:56:31;3.50;;;0.70;;
4758;SDS011;2393;50.560;12.636;2024-02-21T14:58:59;5.03;;;1.00;;
4758;SDS011;2393;50.560;12.636;2024-02-21T15:01:40;1.83;;;0.70;;
4758;SDS011;2393;50.560;12.636;2024-02-21T15:04:08;0.87;;;0.80;;
4758;SDS011;2393;50.560;12.636;2024-02-21T15:06:36;2.47;;;1.00;;
4758;SDS011;2393;50.560;12.636;2024-02-21T15:09:06;2.00;;;0.77;;
4758;SDS011;2393;50.560;12.636;2024-02-21T15:11:37;1.63;;;0.80;;
4758;SDS011;2393;50.560;12.636;2024-02-21T15:14:05;5.33;;;1.20;;
4758;SDS011;2393;50.560;12.636;2024-02-21T15:16:33;1.23;;;0.60;;
4758;SDS011;2393;50.560;12.636;2024-02-21T15:19:02;4.33;;;0.83;;